sensor_id;sensor_type;location;lat;lon;timestamp;temperature;humidity
69901;DHT22;57183;50.930;5.406;2023-03-23T00:01:22;13.50;99.90
69901;DHT22;57183;50.930;5.406;2023-03-23T00:03:51;13.60;99.90
69901;DHT22;57183;50.930;5.406;2023-03-23T00:06:19;13.50;99.90
69901;DHT22;57183;50.930;5.406;2023-03-23T00:08:46;13.50;99.90
69901;DHT22;57183;50.930;5.406;2023-03-23T00:11:18;13.40;99.90
69901;DHT22;57183;50.930;5.406;2023-03-23T00:13:48;13.50;99.90
69901;DHT22;57183;50.930;5.406;2023-03-23T00:16:19;13.50;99.90
69901;DHT22;57183;50.930;5.406;2023-03-23T00:18:46;13.50;99.90
69901;DHT22;57183;50.930;5.406;2023-03-23T00:21:12;13.50;99.90
69901;DHT22;57183;50.930;5.406;2023-03-23T00:23:39;13.50;99.90
69901;DHT22;57183;50.930;5.406;2023-03-23T00:26:05;13.40;99.90
69901;DHT22;57183;50.930;5.406;2023-03-23T00:28:31;13.40;99.90
69901;DHT22;57183;50.930;5.406;2023-03-23T00:30:59;13.50;99.90
69901;DHT22;57183;50.930;5.406;2023-03-23T00:33:26;13.50;99.90
69901;DHT22;57183;50.930;5.406;2023-03-23T00:35:52;13.50;99.90
69901;DHT22;57183;50.930;5.406;2023-03-23T00:38:19;13.50;99.90
69901;DHT22;57183;50.930;5.406;2023-03-23T00:40:46;13.50;99.90
69901;DHT22;57183;50.930;5.406;2023-03-23T00:43:14;13.50;99.90
69901;DHT22;57183;50.930;5.406;2023-03-23T00:45:40;13.50;99.90
69901;DHT22;57183;50.930;5.406;2023-03-23T00:48:06;13.50;99.90
69901;DHT22;57183;50.930;5.406;2023-03-23T00:50:32;13.50;99.90
69901;DHT22;57183;50.930;5.406;2023-03-23T00:52:58;13.50;99.90
69901;DHT22;57183;50.930;5.406;2023-03-23T00:55:25;13.60;99.90
69901;DHT22;57183;50.930;5.406;2023-03-23T00:57:51;13.60;99.90
69901;DHT22;57183;50.930;5.406;2023-03-23T01:00:18;13.60;99.90
69901;DHT22;57183;50.930;5.406;2023-03-23T01:02:44;13.60;99.90
69901;DHT22;57183;50.930;5.406;2023-03-23T01:05:11;13.60;99.90
69901;DHT22;57183;50.930;5.406;2023-03-23T01:07:37;13.50;99.90
69901;DHT22;57183;50.930;5.406;2023-03-23T01:10:03;13.60;99.90
69901;DHT22;57183;50.930;5.406;2023-03-23T01:12:29;13.50;99.90
69901;DHT22;57183;50.930;5.406;2023-03-23T01:14:55;13.50;99.90
69901;DHT22;57183;50.930;5.406;2023-03-23T01:17:21;13.50;99.90
69901;DHT22;57183;50.930;5.406;2023-03-23T01:19:47;13.50;99.90
69901;DHT22;57183;50.930;5.406;2023-03-23T01:22:12;13.40;99.90
69901;DHT22;57183;50.930;5.406;2023-03-23T01:24:38;13.50;99.90
69901;DHT22;57183;50.930;5.406;2023-03-23T01:27:04;13.50;99.90
69901;DHT22;57183;50.930;5.406;2023-03-23T01:29:35;13.60;99.90
69901;DHT22;57183;50.930;5.406;2023-03-23T01:32:02;13.60;99.90
69901;DHT22;57183;50.930;5.406;2023-03-23T01:34:27;13.50;99.90
69901;DHT22;57183;50.930;5.406;2023-03-23T01:36:53;13.50;99.90
69901;DHT22;57183;50.930;5.406;2023-03-23T01:39:19;13.50;99.90
69901;DHT22;57183;50.930;5.406;2023-03-23T01:41:44;13.40;99.90
69901;DHT22;57183;50.930;5.406;2023-03-23T01:46:43;13.30;99.90
69901;DHT22;57183;50.930;5.406;2023-03-23T01:49:23;13.20;99.90
69901;DHT22;57183;50.930;5.406;2023-03-23T01:51:54;13.10;99.90
69901;DHT22;57183;50.930;5.406;2023-03-23T01:54:23;13.20;99.90
69901;DHT22;57183;50.930;5.406;2023-03-23T01:56:59;13.10;99.90
69901;DHT22;57183;50.930;5.406;2023-03-23T01:59:26;13.20;99.90
69901;DHT22;57183;50.930;5.406;2023-03-23T02:01:54;13.20;99.90
69901;DHT22;57183;50.930;5.406;2023-03-23T02:04:22;13.20;99.90
69901;DHT22;57183;50.930;5.406;2023-03-23T02:06:49;13.20;99.90
69901;DHT22;57183;50.930;5.406;2023-03-23T02:09:16;13.20;99.90
69901;DHT22;57183;50.930;5.406;2023-03-23T02:11:43;13.20;99.90
69901;DHT22;57183;50.930;5.406;2023-03-23T02:14:09;13.20;99.90
69901;DHT22;57183;50.930;5.406;2023-03-23T02:20:06;13.20;99.90
69901;DHT22;57183;50.930;5.406;2023-03-23T02:39:08;13.20;99.90
69901;DHT22;57183;50.930;5.406;2023-03-23T02:41:58;13.20;99.90
69901;DHT22;57183;50.930;5.406;2023-03-23T02:44:25;13.30;99.90
69901;DHT22;57183;50.930;5.406;2023-03-23T02:46:56;13.30;99.90
69901;DHT22;57183;50.930;5.406;2023-03-23T02:49:24;13.30;99.90
69901;DHT22;57183;50.930;5.406;2023-03-23T02:51:51;13.30;99.90
69901;DHT22;57183;50.930;5.406;2023-03-23T02:54:18;13.30;99.90
69901;DHT22;57183;50.930;5.406;2023-03-23T02:56:48;13.30;99.90
69901;DHT22;57183;50.930;5.406;2023-03-23T02:59:16;13.20;99.90
69901;DHT22;57183;50.930;5.406;2023-03-23T03:04:11;13.20;99.90
69901;DHT22;57183;50.930;5.406;2023-03-23T03:09:49;13.20;99.90
69901;DHT22;57183;50.930;5.406;2023-03-23T03:12:41;13.10;99.90
69901;DHT22;57183;50.930;5.406;2023-03-23T03:15:33;13.10;99.90
69901;DHT22;57183;50.930;5.406;2023-03-23T03:18:25;13.20;99.90
69901;DHT22;57183;50.930;5.406;2023-03-23T03:21:00;13.20;99.90
69901;DHT22;57183;50.930;5.406;2023-03-23T03:23:28;13.10;99.90
69901;DHT22;57183;50.930;5.406;2023-03-23T03:25:55;13.20;99.90
69901;DHT22;57183;50.930;5.406;2023-03-23T03:28:23;13.20;99.90
69901;DHT22;57183;50.930;5.406;2023-03-23T03:30:57;13.10;99.90
69901;DHT22;57183;50.930;5.406;2023-03-23T03:33:28;13.20;99.90
69901;DHT22;57183;50.930;5.406;2023-03-23T03:35:58;13.10;99.90
69901;DHT22;57183;50.930;5.406;2023-03-23T03:38:25;13.20;99.90
69901;DHT22;57183;50.930;5.406;2023-03-23T03:40:54;13.20;99.90
69901;DHT22;57183;50.930;5.406;2023-03-23T03:43:19;13.10;99.90
69901;DHT22;57183;50.930;5.406;2023-03-23T03:45:45;13.10;99.90
69901;DHT22;57183;50.930;5.406;2023-03-23T03:48:12;13.10;99.90
69901;DHT22;57183;50.930;5.406;2023-03-23T03:50:38;13.10;99.90
69901;DHT22;57183;50.930;5.406;2023-03-23T03:53:04;13.10;99.90
69901;DHT22;57183;50.930;5.406;2023-03-23T03:55:31;13.10;99.90
69901;DHT22;57183;50.930;5.406;2023-03-23T03:58:01;13.10;99.90
69901;DHT22;57183;50.930;5.406;2023-03-23T04:00:28;13.10;99.90
69901;DHT22;57183;50.930;5.406;2023-03-23T04:02:54;13.10;99.90
69901;DHT22;57183;50.930;5.406;2023-03-23T04:05:23;13.10;99.90
69901;DHT22;57183;50.930;5.406;2023-03-23T04:07:50;13.10;99.90
69901;DHT22;57183;50.930;5.406;2023-03-23T04:10:18;13.10;99.90
69901;DHT22;57183;50.930;5.406;2023-03-23T04:12:47;13.10;99.90
69901;DHT22;57183;50.930;5.406;2023-03-23T04:15:13;13.10;99.90
69901;DHT22;57183;50.930;5.406;2023-03-23T04:17:39;13.10;99.90
69901;DHT22;57183;50.930;5.406;2023-03-23T04:20:06;13.10;99.90
69901;DHT22;57183;50.930;5.406;2023-03-23T04:22:38;13.00;99.90
69901;DHT22;57183;50.930;5.406;2023-03-23T04:25:04;13.00;99.90
69901;DHT22;57183;50.930;5.406;2023-03-23T04:27:31;13.00;99.90
69901;DHT22;57183;50.930;5.406;2023-03-23T04:29:58;13.10;99.90
69901;DHT22;57183;50.930;5.406;2023-03-23T04:32:25;13.10;99.90
69901;DHT22;57183;50.930;5.406;2023-03-23T04:34:57;13.10;99.90
69901;DHT22;57183;50.930;5.406;2023-03-23T04:37:26;13.10;99.90
69901;DHT22;57183;50.930;5.406;2023-03-23T04:39:57;13.10;99.90
69901;DHT22;57183;50.930;5.406;2023-03-23T04:42:30;13.00;99.90
69901;DHT22;57183;50.930;5.406;2023-03-23T04:44:57;13.10;99.90
69901;DHT22;57183;50.930;5.406;2023-03-23T04:47:25;13.00;99.90
69901;DHT22;57183;50.930;5.406;2023-03-23T04:49:58;13.00;99.90
69901;DHT22;57183;50.930;5.406;2023-03-23T04:52:27;13.00;99.90
69901;DHT22;57183;50.930;5.406;2023-03-23T04:54:56;13.10;99.90
69901;DHT22;57183;50.930;5.406;2023-03-23T04:57:23;13.00;99.90
69901;DHT22;57183;50.930;5.406;2023-03-23T04:59:49;13.00;99.90
69901;DHT22;57183;50.930;5.406;2023-03-23T05:02:14;12.90;99.90
69901;DHT22;57183;50.930;5.406;2023-03-23T05:04:42;13.00;99.90
69901;DHT22;57183;50.930;5.406;2023-03-23T05:07:08;12.90;99.90
69901;DHT22;57183;50.930;5.406;2023-03-23T05:09:35;13.00;99.90
69901;DHT22;57183;50.930;5.406;2023-03-23T05:12:09;12.90;99.90
69901;DHT22;57183;50.930;5.406;2023-03-23T05:14:35;13.00;99.90
69901;DHT22;57183;50.930;5.406;2023-03-23T05:17:01;12.90;99.90
69901;DHT22;57183;50.930;5.406;2023-03-23T05:19:26;12.90;99.90
69901;DHT22;57183;50.930;5.406;2023-03-23T05:21:54;12.90;99.90
69901;DHT22;57183;50.930;5.406;2023-03-23T05:24:19;12.90;99.90
69901;DHT22;57183;50.930;5.406;2023-03-23T05:26:45;12.90;99.90
69901;DHT22;57183;50.930;5.406;2023-03-23T05:29:14;12.90;99.90
69901;DHT22;57183;50.930;5.406;2023-03-23T05:31:41;12.90;99.90
69901;DHT22;57183;50.930;5.406;2023-03-23T05:34:06;12.90;99.90
69901;DHT22;57183;50.930;5.406;2023-03-23T05:36:32;12.90;99.90
69901;DHT22;57183;50.930;5.406;2023-03-23T05:38:58;12.90;99.90
69901;DHT22;57183;50.930;5.406;2023-03-23T05:41:25;12.90;99.90
69901;DHT22;57183;50.930;5.406;2023-03-23T05:43:51;12.80;99.90
69901;DHT22;57183;50.930;5.406;2023-03-23T05:46:17;12.80;99.90
69901;DHT22;57183;50.930;5.406;2023-03-23T05:48:43;12.70;99.90
69901;DHT22;57183;50.930;5.406;2023-03-23T05:51:09;12.80;99.90
69901;DHT22;57183;50.930;5.406;2023-03-23T05:53:35;12.80;99.90
69901;DHT22;57183;50.930;5.406;2023-03-23T05:56:01;12.70;99.90
69901;DHT22;57183;50.930;5.406;2023-03-23T05:58:27;12.70;99.90
69901;DHT22;57183;50.930;5.406;2023-03-23T06:00:53;12.70;99.90
69901;DHT22;57183;50.930;5.406;2023-03-23T06:03:19;12.80;99.90
69901;DHT22;57183;50.930;5.406;2023-03-23T06:05:45;12.80;99.90
69901;DHT22;57183;50.930;5.406;2023-03-23T06:08:11;12.80;99.90
69901;DHT22;57183;50.930;5.406;2023-03-23T06:10:37;12.80;99.90
69901;DHT22;57183;50.930;5.406;2023-03-23T06:13:04;12.80;99.90
69901;DHT22;57183;50.930;5.406;2023-03-23T06:15:30;12.80;99.90
69901;DHT22;57183;50.930;5.406;2023-03-23T06:18:04;12.80;99.90
69901;DHT22;57183;50.930;5.406;2023-03-23T06:20:31;12.90;99.90
69901;DHT22;57183;50.930;5.406;2023-03-23T06:22:58;12.80;99.90
69901;DHT22;57183;50.930;5.406;2023-03-23T06:25:24;12.90;99.90
69901;DHT22;57183;50.930;5.406;2023-03-23T06:27:49;12.80;99.90
69901;DHT22;57183;50.930;5.406;2023-03-23T06:30:17;12.80;99.90
69901;DHT22;57183;50.930;5.406;2023-03-23T06:32:43;12.80;99.90
69901;DHT22;57183;50.930;5.406;2023-03-23T06:35:12;12.80;99.90
69901;DHT22;57183;50.930;5.406;2023-03-23T06:37:38;12.90;99.90
69901;DHT22;57183;50.930;5.406;2023-03-23T06:40:05;12.90;99.90
69901;DHT22;57183;50.930;5.406;2023-03-23T06:42:32;12.90;99.90
69901;DHT22;57183;50.930;5.406;2023-03-23T06:44:58;12.90;99.90
69901;DHT22;57183;50.930;5.406;2023-03-23T06:47:26;12.90;99.90
69901;DHT22;57183;50.930;5.406;2023-03-23T06:49:52;12.90;99.90
69901;DHT22;57183;50.930;5.406;2023-03-23T06:52:18;12.90;99.90
69901;DHT22;57183;50.930;5.406;2023-03-23T06:54:43;13.00;99.90
69901;DHT22;57183;50.930;5.406;2023-03-23T06:57:09;13.00;99.90
69901;DHT22;57183;50.930;5.406;2023-03-23T06:59:35;13.00;99.90
69901;DHT22;57183;50.930;5.406;2023-03-23T07:02:01;13.10;99.90
69901;DHT22;57183;50.930;5.406;2023-03-23T07:04:27;13.10;99.90
69901;DHT22;57183;50.930;5.406;2023-03-23T07:06:53;13.10;99.90
69901;DHT22;57183;50.930;5.406;2023-03-23T07:09:18;13.00;99.90
69901;DHT22;57183;50.930;5.406;2023-03-23T07:11:44;13.00;99.90
69901;DHT22;57183;50.930;5.406;2023-03-23T07:14:11;13.10;99.90
69901;DHT22;57183;50.930;5.406;2023-03-23T07:16:37;13.10;99.90
69901;DHT22;57183;50.930;5.406;2023-03-23T07:19:02;13.10;99.90
69901;DHT22;57183;50.930;5.406;2023-03-23T07:21:28;13.10;99.90
69901;DHT22;57183;50.930;5.406;2023-03-23T07:23:54;13.10;99.90
69901;DHT22;57183;50.930;5.406;2023-03-23T07:26:20;13.20;99.90
69901;DHT22;57183;50.930;5.406;2023-03-23T07:28:46;13.20;99.90
69901;DHT22;57183;50.930;5.406;2023-03-23T07:31:12;13.20;99.90
69901;DHT22;57183;50.930;5.406;2023-03-23T07:33:38;13.30;99.90
69901;DHT22;57183;50.930;5.406;2023-03-23T07:36:04;13.30;99.90
69901;DHT22;57183;50.930;5.406;2023-03-23T07:38:31;13.30;99.90
69901;DHT22;57183;50.930;5.406;2023-03-23T07:40:57;13.40;99.90
69901;DHT22;57183;50.930;5.406;2023-03-23T07:43:23;13.40;99.90
69901;DHT22;57183;50.930;5.406;2023-03-23T07:45:49;13.40;99.90
69901;DHT22;57183;50.930;5.406;2023-03-23T07:48:16;13.40;99.90
69901;DHT22;57183;50.930;5.406;2023-03-23T07:50:42;13.40;99.90
69901;DHT22;57183;50.930;5.406;2023-03-23T07:53:08;13.50;99.90
69901;DHT22;57183;50.930;5.406;2023-03-23T07:55:33;13.40;99.90
69901;DHT22;57183;50.930;5.406;2023-03-23T07:57:59;13.50;99.90
69901;DHT22;57183;50.930;5.406;2023-03-23T08:00:25;13.50;99.90
69901;DHT22;57183;50.930;5.406;2023-03-23T08:02:55;13.40;99.90
69901;DHT22;57183;50.930;5.406;2023-03-23T08:05:22;13.40;99.90
69901;DHT22;57183;50.930;5.406;2023-03-23T08:07:48;13.50;99.90
69901;DHT22;57183;50.930;5.406;2023-03-23T08:10:16;13.50;99.90
69901;DHT22;57183;50.930;5.406;2023-03-23T08:12:44;13.50;99.90
69901;DHT22;57183;50.930;5.406;2023-03-23T08:15:12;13.50;99.90
69901;DHT22;57183;50.930;5.406;2023-03-23T08:17:40;13.50;99.90
69901;DHT22;57183;50.930;5.406;2023-03-23T08:20:07;13.40;99.90
69901;DHT22;57183;50.930;5.406;2023-03-23T08:22:45;13.30;99.90
69901;DHT22;57183;50.930;5.406;2023-03-23T08:25:13;13.30;99.90
69901;DHT22;57183;50.930;5.406;2023-03-23T08:27:40;13.30;99.90
69901;DHT22;57183;50.930;5.406;2023-03-23T08:30:15;13.20;99.90
69901;DHT22;57183;50.930;5.406;2023-03-23T08:32:41;13.30;99.90
69901;DHT22;57183;50.930;5.406;2023-03-23T08:35:09;13.30;99.90
69901;DHT22;57183;50.930;5.406;2023-03-23T08:37:35;13.20;99.90
69901;DHT22;57183;50.930;5.406;2023-03-23T08:40:01;13.20;99.90
69901;DHT22;57183;50.930;5.406;2023-03-23T08:42:32;13.20;99.90
69901;DHT22;57183;50.930;5.406;2023-03-23T08:44:58;13.20;99.90
69901;DHT22;57183;50.930;5.406;2023-03-23T08:47:24;13.10;99.90
69901;DHT22;57183;50.930;5.406;2023-03-23T08:49:51;13.20;99.90
69901;DHT22;57183;50.930;5.406;2023-03-23T08:52:18;13.20;99.90
69901;DHT22;57183;50.930;5.406;2023-03-23T08:54:44;13.10;99.90
69901;DHT22;57183;50.930;5.406;2023-03-23T08:57:13;12.90;99.90
69901;DHT22;57183;50.930;5.406;2023-03-23T08:59:40;12.40;99.90
69901;DHT22;57183;50.930;5.406;2023-03-23T09:02:11;12.10;99.90
69901;DHT22;57183;50.930;5.406;2023-03-23T09:04:38;11.90;99.90
69901;DHT22;57183;50.930;5.406;2023-03-23T09:07:05;11.70;99.90
69901;DHT22;57183;50.930;5.406;2023-03-23T09:09:32;11.60;99.90
69901;DHT22;57183;50.930;5.406;2023-03-23T09:11:59;11.30;99.90
69901;DHT22;57183;50.930;5.406;2023-03-23T09:14:25;11.40;99.90
69901;DHT22;57183;50.930;5.406;2023-03-23T09:16:52;11.30;99.90
69901;DHT22;57183;50.930;5.406;2023-03-23T09:19:17;11.20;99.90
69901;DHT22;57183;50.930;5.406;2023-03-23T09:21:44;11.10;99.90
69901;DHT22;57183;50.930;5.406;2023-03-23T09:24:10;10.90;99.90
69901;DHT22;57183;50.930;5.406;2023-03-23T09:26:36;10.80;99.90
69901;DHT22;57183;50.930;5.406;2023-03-23T09:29:02;10.80;99.90
69901;DHT22;57183;50.930;5.406;2023-03-23T09:31:28;10.70;99.90
69901;DHT22;57183;50.930;5.406;2023-03-23T09:33:55;10.70;99.90
69901;DHT22;57183;50.930;5.406;2023-03-23T09:36:22;10.90;99.90
69901;DHT22;57183;50.930;5.406;2023-03-23T09:38:48;11.10;99.90
69901;DHT22;57183;50.930;5.406;2023-03-23T09:45:09;11.50;99.90
69901;DHT22;57183;50.930;5.406;2023-03-23T09:47:45;11.60;99.90
69901;DHT22;57183;50.930;5.406;2023-03-23T09:50:16;11.50;99.90
69901;DHT22;57183;50.930;5.406;2023-03-23T09:55:35;11.50;99.90
69901;DHT22;57183;50.930;5.406;2023-03-23T10:03:41;11.60;99.90
69901;DHT22;57183;50.930;5.406;2023-03-23T10:06:12;11.50;99.90
69901;DHT22;57183;50.930;5.406;2023-03-23T10:08:45;11.50;99.90
69901;DHT22;57183;50.930;5.406;2023-03-23T10:11:31;11.40;99.90
69901;DHT22;57183;50.930;5.406;2023-03-23T10:16:53;11.80;99.90
69901;DHT22;57183;50.930;5.406;2023-03-23T10:19:29;12.00;99.90
69901;DHT22;57183;50.930;5.406;2023-03-23T10:22:08;12.10;99.90
69901;DHT22;57183;50.930;5.406;2023-03-23T10:26:00;12.10;99.90
69901;DHT22;57183;50.930;5.406;2023-03-23T10:28:12;12.10;99.90
69901;DHT22;57183;50.930;5.406;2023-03-23T10:30:46;12.00;99.90
69901;DHT22;57183;50.930;5.406;2023-03-23T10:33:22;12.10;99.90
69901;DHT22;57183;50.930;5.406;2023-03-23T10:41:25;11.90;99.90
69901;DHT22;57183;50.930;5.406;2023-03-23T10:43:51;11.80;99.90
69901;DHT22;57183;50.930;5.406;2023-03-23T10:49:11;12.00;99.90
69901;DHT22;57183;50.930;5.406;2023-03-23T10:51:46;12.20;99.90
69901;DHT22;57183;50.930;5.406;2023-03-23T10:54:26;12.30;99.90
69901;DHT22;57183;50.930;5.406;2023-03-23T10:56:52;12.20;99.90
69901;DHT22;57183;50.930;5.406;2023-03-23T10:59:29;12.20;99.90
69901;DHT22;57183;50.930;5.406;2023-03-23T11:02:00;12.30;99.90
69901;DHT22;57183;50.930;5.406;2023-03-23T11:04:30;12.40;99.90
69901;DHT22;57183;50.930;5.406;2023-03-23T11:07:01;12.40;99.90
69901;DHT22;57183;50.930;5.406;2023-03-23T11:09:38;12.40;99.90
69901;DHT22;57183;50.930;5.406;2023-03-23T11:12:15;12.30;99.90
69901;DHT22;57183;50.930;5.406;2023-03-23T11:14:41;12.20;99.90
69901;DHT22;57183;50.930;5.406;2023-03-23T11:17:22;12.00;99.90
69901;DHT22;57183;50.930;5.406;2023-03-23T11:19:48;12.00;99.90
69901;DHT22;57183;50.930;5.406;2023-03-23T11:22:26;12.10;99.90
69901;DHT22;57183;50.930;5.406;2023-03-23T11:24:55;12.10;99.90
69901;DHT22;57183;50.930;5.406;2023-03-23T11:27:23;12.20;99.90
69901;DHT22;57183;50.930;5.406;2023-03-23T11:29:55;12.20;99.90
69901;DHT22;57183;50.930;5.406;2023-03-23T11:32:27;12.30;99.90
69901;DHT22;57183;50.930;5.406;2023-03-23T11:35:02;12.30;99.90
69901;DHT22;57183;50.930;5.406;2023-03-23T11:37:53;12.20;99.90
69901;DHT22;57183;50.930;5.406;2023-03-23T11:40:22;12.20;99.90
69901;DHT22;57183;50.930;5.406;2023-03-23T11:42:57;12.50;99.90
69901;DHT22;57183;50.930;5.406;2023-03-23T11:45:36;12.60;99.90
69901;DHT22;57183;50.930;5.406;2023-03-23T11:51:13;12.70;99.90
69901;DHT22;57183;50.930;5.406;2023-03-23T11:54:10;12.90;99.90
69901;DHT22;57183;50.930;5.406;2023-03-23T11:56:41;13.10;99.90
69901;DHT22;57183;50.930;5.406;2023-03-23T11:59:15;13.30;99.90
69901;DHT22;57183;50.930;5.406;2023-03-23T12:02:01;13.40;99.90
69901;DHT22;57183;50.930;5.406;2023-03-23T12:04:37;13.30;99.90
69901;DHT22;57183;50.930;5.406;2023-03-23T12:31:22;14.70;99.90
69901;DHT22;57183;50.930;5.406;2023-03-23T12:36:24;14.70;99.90
69901;DHT22;57183;50.930;5.406;2023-03-23T12:41:33;14.90;99.90
69901;DHT22;57183;50.930;5.406;2023-03-23T12:44:06;14.70;99.90
69901;DHT22;57183;50.930;5.406;2023-03-23T12:49:31;14.60;99.90
69901;DHT22;57183;50.930;5.406;2023-03-23T12:54:59;14.50;99.90
69901;DHT22;57183;50.930;5.406;2023-03-23T13:03:39;14.80;99.90
69901;DHT22;57183;50.930;5.406;2023-03-23T13:06:46;15.00;99.90
69901;DHT22;57183;50.930;5.406;2023-03-23T13:11:44;14.90;99.90
69901;DHT22;57183;50.930;5.406;2023-03-23T13:20:05;14.60;99.90
69901;DHT22;57183;50.930;5.406;2023-03-23T13:22:50;14.50;99.90
69901;DHT22;57183;50.930;5.406;2023-03-23T13:28:19;14.50;99.90
69901;DHT22;57183;50.930;5.406;2023-03-23T13:31:14;14.40;99.90
69901;DHT22;57183;50.930;5.406;2023-03-23T13:33:49;14.30;99.90
69901;DHT22;57183;50.930;5.406;2023-03-23T13:36:25;14.10;99.90
69901;DHT22;57183;50.930;5.406;2023-03-23T13:38:52;14.10;99.90
69901;DHT22;57183;50.930;5.406;2023-03-23T13:41:19;14.10;99.90
69901;DHT22;57183;50.930;5.406;2023-03-23T13:43:47;13.80;99.90
69901;DHT22;57183;50.930;5.406;2023-03-23T13:46:27;13.60;99.90
69901;DHT22;57183;50.930;5.406;2023-03-23T13:49:16;13.30;99.90
69901;DHT22;57183;50.930;5.406;2023-03-23T14:01:56;13.20;99.90
69901;DHT22;57183;50.930;5.406;2023-03-23T14:04:30;13.30;99.90
69901;DHT22;57183;50.930;5.406;2023-03-23T14:06:57;13.30;99.90
69901;DHT22;57183;50.930;5.406;2023-03-23T14:09:38;13.50;99.90
69901;DHT22;57183;50.930;5.406;2023-03-23T14:12:14;13.70;99.90
69901;DHT22;57183;50.930;5.406;2023-03-23T14:14:41;13.80;99.90
69901;DHT22;57183;50.930;5.406;2023-03-23T14:17:15;14.00;99.90
69901;DHT22;57183;50.930;5.406;2023-03-23T14:19:46;14.20;99.90
69901;DHT22;57183;50.930;5.406;2023-03-23T14:22:26;14.30;99.90
69901;DHT22;57183;50.930;5.406;2023-03-23T14:25:09;14.50;99.90
69901;DHT22;57183;50.930;5.406;2023-03-23T14:27:35;14.60;99.90
69901;DHT22;57183;50.930;5.406;2023-03-23T14:30:05;14.80;99.90
69901;DHT22;57183;50.930;5.406;2023-03-23T14:32:32;15.00;99.90
69901;DHT22;57183;50.930;5.406;2023-03-23T14:35:00;15.20;99.90
69901;DHT22;57183;50.930;5.406;2023-03-23T14:37:31;15.50;99.90
69901;DHT22;57183;50.930;5.406;2023-03-23T14:39:58;15.60;99.90
69901;DHT22;57183;50.930;5.406;2023-03-23T14:42:31;15.50;99.90
69901;DHT22;57183;50.930;5.406;2023-03-23T14:44:59;15.60;99.90
69901;DHT22;57183;50.930;5.406;2023-03-23T14:47:29;15.60;99.90
69901;DHT22;57183;50.930;5.406;2023-03-23T14:49:57;15.40;99.90
69901;DHT22;57183;50.930;5.406;2023-03-23T14:52:27;15.10;99.90
69901;DHT22;57183;50.930;5.406;2023-03-23T14:54:53;14.80;99.90
69901;DHT22;57183;50.930;5.406;2023-03-23T14:57:27;14.60;99.90
69901;DHT22;57183;50.930;5.406;2023-03-23T14:59:53;14.50;99.90
69901;DHT22;57183;50.930;5.406;2023-03-23T15:02:35;14.60;99.90
69901;DHT22;57183;50.930;5.406;2023-03-23T15:05:08;14.90;99.90
69901;DHT22;57183;50.930;5.406;2023-03-23T15:07:37;15.10;99.90
69901;DHT22;57183;50.930;5.406;2023-03-23T15:10:08;15.10;99.90
69901;DHT22;57183;50.930;5.406;2023-03-23T15:12:35;14.90;99.90
69901;DHT22;57183;50.930;5.406;2023-03-23T15:15:06;14.90;99.90
69901;DHT22;57183;50.930;5.406;2023-03-23T15:17:45;15.00;99.90
69901;DHT22;57183;50.930;5.406;2023-03-23T15:22:47;14.90;99.90
69901;DHT22;57183;50.930;5.406;2023-03-23T15:25:20;14.80;99.90
69901;DHT22;57183;50.930;5.406;2023-03-23T15:28:51;14.80;99.90
69901;DHT22;57183;50.930;5.406;2023-03-23T15:31:01;14.90;99.90
69901;DHT22;57183;50.930;5.406;2023-03-23T15:33:34;15.00;99.90
69901;DHT22;57183;50.930;5.406;2023-03-23T15:36:13;15.10;99.90
69901;DHT22;57183;50.930;5.406;2023-03-23T15:38:43;15.30;99.90
69901;DHT22;57183;50.930;5.406;2023-03-23T15:41:25;15.20;99.90
69901;DHT22;57183;50.930;5.406;2023-03-23T15:43:56;15.10;99.90
69901;DHT22;57183;50.930;5.406;2023-03-23T15:46:28;14.90;99.90
69901;DHT22;57183;50.930;5.406;2023-03-23T15:51:30;14.70;99.90
69901;DHT22;57183;50.930;5.406;2023-03-23T15:53:56;14.90;99.90
69901;DHT22;57183;50.930;5.406;2023-03-23T15:56:23;15.20;99.90
69901;DHT22;57183;50.930;5.406;2023-03-23T15:58:50;15.60;99.90
69901;DHT22;57183;50.930;5.406;2023-03-23T16:01:20;16.30;99.90
69901;DHT22;57183;50.930;5.406;2023-03-23T16:03:49;16.80;99.90
69901;DHT22;57183;50.930;5.406;2023-03-23T16:06:18;17.00;99.90
69901;DHT22;57183;50.930;5.406;2023-03-23T16:08:44;16.90;99.90
69901;DHT22;57183;50.930;5.406;2023-03-23T16:11:12;16.80;99.90
69901;DHT22;57183;50.930;5.406;2023-03-23T16:13:38;16.50;99.90
69901;DHT22;57183;50.930;5.406;2023-03-23T16:16:05;16.90;99.90
69901;DHT22;57183;50.930;5.406;2023-03-23T16:18:32;17.10;99.90
69901;DHT22;57183;50.930;5.406;2023-03-23T16:20:58;17.20;99.90
69901;DHT22;57183;50.930;5.406;2023-03-23T16:23:25;16.80;99.90
69901;DHT22;57183;50.930;5.406;2023-03-23T16:25:51;16.20;99.90
69901;DHT22;57183;50.930;5.406;2023-03-23T16:28:17;15.90;99.90
69901;DHT22;57183;50.930;5.406;2023-03-23T16:30:45;15.70;99.90
69901;DHT22;57183;50.930;5.406;2023-03-23T16:33:11;15.50;99.90
69901;DHT22;57183;50.930;5.406;2023-03-23T16:35:37;15.40;99.90
69901;DHT22;57183;50.930;5.406;2023-03-23T16:38:04;15.40;99.90
69901;DHT22;57183;50.930;5.406;2023-03-23T16:40:30;15.40;99.90
69901;DHT22;57183;50.930;5.406;2023-03-23T16:42:57;15.50;99.90
69901;DHT22;57183;50.930;5.406;2023-03-23T16:45:23;15.80;99.90
69901;DHT22;57183;50.930;5.406;2023-03-23T16:47:51;16.60;99.90
69901;DHT22;57183;50.930;5.406;2023-03-23T16:50:19;17.00;99.90
69901;DHT22;57183;50.930;5.406;2023-03-23T16:52:45;17.10;99.90
69901;DHT22;57183;50.930;5.406;2023-03-23T16:55:13;16.80;99.90
69901;DHT22;57183;50.930;5.406;2023-03-23T16:57:39;16.70;99.90
69901;DHT22;57183;50.930;5.406;2023-03-23T17:00:11;16.50;99.90
69901;DHT22;57183;50.930;5.406;2023-03-23T17:02:42;16.40;99.90
69901;DHT22;57183;50.930;5.406;2023-03-23T17:05:09;16.10;99.90
69901;DHT22;57183;50.930;5.406;2023-03-23T17:07:37;15.90;99.90
69901;DHT22;57183;50.930;5.406;2023-03-23T17:10:03;15.70;99.90
69901;DHT22;57183;50.930;5.406;2023-03-23T17:12:30;15.50;99.90
69901;DHT22;57183;50.930;5.406;2023-03-23T17:14:56;15.40;99.90
69901;DHT22;57183;50.930;5.406;2023-03-23T17:17:23;15.40;99.90
69901;DHT22;57183;50.930;5.406;2023-03-23T17:19:49;15.40;99.90
69901;DHT22;57183;50.930;5.406;2023-03-23T17:22:15;15.40;99.90
69901;DHT22;57183;50.930;5.406;2023-03-23T17:24:41;15.40;99.90
69901;DHT22;57183;50.930;5.406;2023-03-23T17:27:07;15.40;99.90
69901;DHT22;57183;50.930;5.406;2023-03-23T17:29:33;15.30;99.90
69901;DHT22;57183;50.930;5.406;2023-03-23T17:31:58;15.40;99.90
69901;DHT22;57183;50.930;5.406;2023-03-23T17:34:24;15.40;99.90
69901;DHT22;57183;50.930;5.406;2023-03-23T17:36:50;15.50;99.90
69901;DHT22;57183;50.930;5.406;2023-03-23T17:39:15;15.40;99.90
69901;DHT22;57183;50.930;5.406;2023-03-23T17:41:41;15.40;99.90
69901;DHT22;57183;50.930;5.406;2023-03-23T17:44:07;15.30;99.90
69901;DHT22;57183;50.930;5.406;2023-03-23T17:46:33;15.20;99.90